Terminal Aerodrome Forecast
Issued by NWS

Current Version | Previous Version | Graphics & Text | Print | Product List | Glossary Off
Versions: 1 2 3 4 5 6 7 8 9 10 11 12 13

000
FTUS42 KILM 230500
TAFCRE
TAF
KCRE 230539Z 2306/2406 VRB03KT P6SM BKN100
     FM231300 10004KT P6SM VCSH SCT040 BKN060
     FM231500 11010KT 6SM -RA SCT010 BKN025
     FM231900 12014KT 3SM RA BR BKN007 OVC015
     FM240100 17018KT 3SM -RA BR BKN007 OVC015=

USA.gov is the U.S. government's official web portal to all federal, state and local government web resources and services.